Time;durP1;ratioP1;P1;durP2;ratioP2;P2;SDS_P1;SDS_P2;PMS_P1;PMS_P2;Temp;Humidity;BMP_temperature;BMP_pressure;BME280_temperature;BME280_humidity;BME280_pressure;Samples;Min_cycle;Max_cycle;Signal;HPM_P1;HPM_P2
2022/09/23 00:00:47;;;;;;;28.88;15.00;;;8.50;99.90;;;;;;5098630;28;20040;-73
2022/09/23 00:03:14;;;;;;;31.67;17.67;;;8.50;99.90;;;;;;5106367;28;20399;-73
2022/09/23 00:05:39;;;;;;;44.30;39.10;;;8.50;99.90;;;;;;5108457;28;20067;-73
2022/09/23 00:08:07;;;;;;;56.28;47.67;;;8.50;99.90;;;;;;5089745;28;20044;-73
2022/09/23 00:10:36;;;;;;;24.67;16.35;;;8.60;99.90;;;;;;5092398;28;20055;-73
2022/09/23 00:13:03;;;;;;;46.38;41.50;;;8.60;99.90;;;;;;5108565;28;20481;-73
2022/09/23 00:15:30;;;;;;;49.35;40.53;;;8.70;99.90;;;;;;5109199;28;20574;-73
2022/09/23 00:17:56;;;;;;;32.00;18.30;;;8.70;99.90;;;;;;5108458;28;20519;-73
2022/09/23 00:20:22;;;;;;;29.60;15.25;;;8.60;99.90;;;;;;5108640;28;20048;-73
2022/09/23 00:22:48;;;;;;;53.92;47.30;;;8.60;99.90;;;;;;5102262;28;20051;-73
2022/09/23 00:25:13;;;;;;;33.47;17.38;;;8.60;99.90;;;;;;5106315;28;20088;-73
2022/09/23 00:27:39;;;;;;;54.20;44.58;;;8.60;99.90;;;;;;5102854;28;20109;-73
2022/09/23 00:30:07;;;;;;;50.72;44.00;;;8.50;99.90;;;;;;5099639;28;20059;-73
2022/09/23 00:32:34;;;;;;;35.50;18.42;;;8.50;99.90;;;;;;5108837;28;20101;-73
2022/09/23 00:35:00;;;;;;;36.42;18.77;;;8.50;99.90;;;;;;5092142;28;20115;-73
2022/09/23 00:37:27;;;;;;;52.33;45.05;;;8.40;99.90;;;;;;5104290;28;20511;-73
2022/09/23 00:39:54;;;;;;;49.95;43.88;;;8.40;99.90;;;;;;5102914;28;20035;-73
2022/09/23 00:42:21;;;;;;;29.80;17.48;;;8.40;99.90;;;;;;5107885;28;20062;-72
2022/09/23 00:44:55;;;;;;;38.22;15.43;;;8.70;99.90;;;;;;5089200;28;20051;-73
2022/09/23 00:47:23;;;;;;;56.28;45.20;;;8.40;99.90;;;;;;5100973;28;20048;-73
2022/09/23 00:50:29;;;;;;;31.88;18.95;;;8.30;99.90;;;;;;5103196;28;20618;-73
2022/09/23 00:52:58;;;;;;;28.00;15.07;;;8.30;99.90;;;;;;5085397;28;20067;-73
2022/09/23 00:55:28;;;;;;;32.17;17.67;;;8.30;99.90;;;;;;5098474;28;20051;-73
2022/09/23 00:57:57;;;;;;;47.17;40.90;;;8.30;99.90;;;;;;5090881;28;20049;-73
2022/09/23 01:00:23;;;;;;;45.95;41.05;;;8.30;99.90;;;;;;5105031;28;20080;-73
2022/09/23 01:02:50;;;;;;;47.78;41.50;;;8.40;99.90;;;;;;5098096;28;20044;-73
2022/09/23 01:05:16;;;;;;;54.35;44.67;;;8.30;99.90;;;;;;5108127;28;20090;-73
2022/09/23 01:07:43;;;;;;;29.90;18.38;;;8.40;99.90;;;;;;5093716;28;20071;-73
2022/09/23 01:10:12;;;;;;;49.15;43.10;;;8.40;99.90;;;;;;5104423;28;20040;-73
2022/09/23 01:13:06;;;;;;;30.50;17.52;;;8.40;99.90;;;;;;5097867;28;20044;-73
2022/09/23 01:15:54;;;;;;;52.67;46.15;;;8.40;99.90;;;;;;5107521;28;20508;-73
2022/09/23 01:18:55;;;;;;;34.10;18.95;;;8.40;99.90;;;;;;5083596;28;20054;-73
2022/09/23 01:21:33;;;;;;;48.97;42.78;;;8.30;99.90;;;;;;5096189;28;20096;-73
2022/09/23 01:24:20;;;;;;;35.08;20.45;;;8.40;99.90;;;;;;5106142;28;20132;-73
2022/09/23 01:26:55;;;;;;;55.22;44.35;;;8.30;99.90;;;;;;5092915;28;20048;-73
2022/09/23 01:29:58;;;;;;;37.00;13.93;;;8.50;99.90;;;;;;5106438;28;20090;-73
2022/09/23 01:32:41;;;;;;;37.33;20.33;;;8.30;99.90;;;;;;5101020;28;20136;-73
2022/09/23 01:35:25;;;;;;;58.33;47.67;;;8.30;99.90;;;;;;5086652;28;20075;-73
2022/09/23 01:37:57;;;;;;;56.20;45.47;;;8.20;99.90;;;;;;5098817;28;20054;-73
2022/09/23 01:40:35;;;;;;;33.33;18.35;;;8.20;99.90;;;;;;5106647;28;20048;-73
2022/09/23 01:43:10;;;;;;;33.42;19.38;;;8.20;99.90;;;;;;5086436;28;20087;-73
2022/09/23 01:45:43;;;;;;;70.55;48.90;;;8.10;99.90;;;;;;5100599;28;20539;-73
2022/09/23 01:48:18;;;;;;;34.00;17.48;;;8.10;99.90;;;;;;5103449;28;20469;-73
2022/09/23 01:50:56;;;;;;;31.48;17.20;;;8.20;99.90;;;;;;5104272;28;20188;-73
2022/09/23 01:53:24;;;;;;;;;;;8.10;99.90;;;;;;5106826;28;20092;-73
2022/09/23 01:55:56;;;;;;;32.45;15.65;;;8.10;99.90;;;;;;5106483;28;19981;-73
2022/09/23 01:58:40;;;;;;;56.72;47.95;;;8.10;99.90;;;;;;5106744;28;20792;-73
2022/09/23 02:01:08;;;;;;;55.72;48.05;;;8.10;99.90;;;;;;5106798;28;20083;-73
2022/09/23 02:03:46;;;;;;;36.35;18.70;;;8.10;99.90;;;;;;5095229;28;20076;-73
2022/09/23 02:06:22;;;;;;;38.80;18.98;;;8.00;99.90;;;;;;5106829;28;20070;-73
2022/09/23 02:09:13;;;;;;;59.45;50.75;;;8.00;99.90;;;;;;5106439;28;20169;-73
2022/09/23 02:11:42;;;;;;;31.73;19.10;;;8.00;99.90;;;;;;5102037;28;20055;-73
2022/09/23 02:14:20;;;;;;;38.72;21.17;;;8.20;99.90;;;;;;5105881;28;20579;-73
2022/09/23 02:16:54;;;;;;;;;;;8.00;99.90;;;;;;5104580;28;20059;-73
2022/09/23 02:19:36;;;;;;;60.40;46.83;;;8.00;99.90;;;;;;5096805;28;19931;-73
2022/09/23 02:22:11;;;;;;;55.97;46.70;;;7.90;99.90;;;;;;5104520;28;20039;-73
2022/09/23 02:24:38;;;;;;;53.05;47.08;;;7.90;99.90;;;;;;5106310;28;20047;-73
2022/09/23 02:27:06;;;;;;;37.33;21.33;;;7.90;99.90;;;;;;5107657;28;20043;-73
2022/09/23 02:29:54;;;;;;;53.92;45.72;;;7.90;99.90;;;;;;5106511;28;20497;-73
2022/09/23 02:32:43;;;;;;;31.33;17.00;;;8.60;99.90;;;;;;5101127;28;20135;-73
2022/09/23 02:35:28;;;;;;;54.25;43.35;;;7.80;99.90;;;;;;5096086;28;20063;-73
2022/09/23 02:38:04;;;;;;;39.28;20.80;;;7.80;99.90;;;;;;5102559;28;20048;-73
2022/09/23 02:40:33;;;;;;;57.78;46.92;;;7.70;99.90;;;;;;5106653;28;20058;-73
2022/09/23 02:43:22;;;;;;;27.77;16.48;;;7.90;99.90;;;;;;5106932;28;20549;-73
2022/09/23 02:45:49;;;;;;;57.05;47.17;;;7.70;99.90;;;;;;5094640;28;20723;-73
2022/09/23 02:48:55;;;;;;;54.50;45.72;;;7.70;99.90;;;;;;5100738;28;20048;-73
2022/09/23 02:51:24;;;;;;;38.83;21.77;;;7.80;99.90;;;;;;5066860;28;20450;-73
2022/09/23 02:53:52;;;;;;;28.98;16.17;;;7.70;99.90;;;;;;5094745;28;20052;-73
2022/09/23 02:56:19;;;;;;;25.55;16.42;;;7.60;99.90;;;;;;5109227;28;20052;-73
2022/09/23 02:58:51;;;;;;;31.13;16.02;;;7.60;99.90;;;;;;5100982;28;20062;-73
2022/09/23 03:01:31;;;;;;;54.65;45.38;;;7.50;99.90;;;;;;5094877;28;20044;-73
2022/09/23 03:04:16;;;;;;;35.95;18.67;;;7.60;99.90;;;;;;5106274;28;20093;-73
2022/09/23 03:07:05;;;;;;;54.78;44.08;;;7.60;99.90;;;;;;5109498;28;20139;-73
2022/09/23 03:10:19;;;;;;;33.25;17.10;;;7.60;99.90;;;;;;5105155;28;20040;-73
2022/09/23 03:12:51;;;;;;;51.78;43.40;;;7.50;99.90;;;;;;5065015;28;20467;-73
2022/09/23 03:15:35;;;;;;;32.45;18.13;;;7.50;99.90;;;;;;5109304;28;20446;-73
2022/09/23 03:18:22;;;;;;;51.03;42.45;;;7.40;99.90;;;;;;5094575;28;20732;-73
2022/09/23 03:20:57;;;;;;;34.15;18.05;;;7.40;99.90;;;;;;5068084;28;20409;-73
2022/09/23 03:23:30;;;;;;;24.83;13.73;;;7.40;99.90;;;;;;5104842;28;20056;-73
2022/09/23 03:25:58;;;;;;;27.42;15.90;;;7.40;99.90;;;;;;5108733;28;20058;-73
2022/09/23 03:28:26;;;;;;;53.20;44.15;;;7.30;99.90;;;;;;5108349;28;20419;-73
2022/09/23 03:30:54;;;;;;;26.75;17.42;;;7.30;99.90;;;;;;5108537;28;20540;-73
2022/09/23 03:33:24;;;;;;;29.45;16.13;;;7.30;99.90;;;;;;5101973;28;20092;-73
2022/09/23 03:38:49;;;;;;;50.05;39.67;;;7.20;99.90;;;;;;5106463;28;20064;-73
2022/09/23 03:41:23;;;;;;;35.25;16.80;;;7.20;99.90;;;;;;5087486;28;20067;-73
2022/09/23 03:43:52;;;;;;;23.30;15.43;;;7.20;99.90;;;;;;5102534;28;20047;-73
2022/09/23 03:46:17;;;;;;;53.45;42.25;;;7.10;99.90;;;;;;5096689;28;20496;-73
2022/09/23 03:48:44;;;;;;;30.75;15.85;;;7.10;99.90;;;;;;5105732;28;20097;-73
2022/09/23 03:51:22;;;;;;;61.65;49.35;;;7.10;99.90;;;;;;5107058;28;20039;-73
2022/09/23 03:53:49;;;;;;;38.20;21.40;;;7.10;99.90;;;;;;5080824;28;20051;-73
2022/09/23 03:56:16;;;;;;;28.88;16.70;;;7.00;99.90;;;;;;5108277;28;20083;-73
2022/09/23 03:58:44;;;;;;;25.65;14.60;;;7.00;99.90;;;;;;5109371;28;20515;-73
2022/09/23 04:01:09;;;;;;;36.33;18.40;;;6.90;99.90;;;;;;5108235;28;20054;-73
2022/09/23 04:03:35;;;;;;;32.03;17.00;;;6.90;99.90;;;;;;5096633;28;20044;-73
2022/09/23 04:06:01;;;;;;;23.45;13.82;;;6.90;99.90;;;;;;5090527;28;20043;-73
2022/09/23 04:08:26;;;;;;;33.97;15.48;;;6.80;99.90;;;;;;5108032;28;20514;-73
2022/09/23 04:10:57;;;;;;;41.88;16.52;;;6.80;99.90;;;;;;5096955;28;20051;-73
2022/09/23 04:13:23;;;;;;;55.25;45.38;;;6.80;99.90;;;;;;5105869;28;20054;-73
2022/09/23 04:15:49;;;;;;;50.63;43.25;;;6.80;99.90;;;;;;5107755;28;20043;-73
2022/09/23 04:18:14;;;;;;;60.47;44.25;;;6.80;99.90;;;;;;5105900;28;20093;-73
2022/09/23 04:20:40;;;;;;;30.27;16.08;;;6.80;99.90;;;;;;5090673;28;20051;-73
2022/09/23 04:23:06;;;;;;;52.58;44.38;;;6.70;99.90;;;;;;5106385;28;20059;-73
2022/09/23 04:25:32;;;;;;;30.48;16.73;;;6.70;99.90;;;;;;5102683;28;20050;-72
2022/09/23 04:27:57;;;;;;;56.60;45.15;;;6.70;99.90;;;;;;5103587;28;20039;-72
2022/09/23 04:30:23;;;;;;;29.73;17.02;;;6.70;99.90;;;;;;5098907;28;20043;-73
2022/09/23 04:32:51;;;;;;;28.48;16.48;;;6.60;99.90;;;;;;5108084;28;20040;-73
2022/09/23 04:35:17;;;;;;;30.33;14.68;;;6.50;99.90;;;;;;5109085;28;20032;-73
2022/09/23 04:37:46;;;;;;;53.53;43.70;;;6.80;99.90;;;;;;5103527;28;20433;-72
2022/09/23 04:40:11;;;;;;;31.77;17.83;;;6.60;99.90;;;;;;5102071;28;20435;-72
2022/09/23 04:42:37;;;;;;;25.45;15.38;;;6.60;99.90;;;;;;5107131;28;20043;-72
2022/09/23 04:45:04;;;;;;;51.83;44.67;;;6.50;99.90;;;;;;5107605;28;20104;-73
2022/09/23 04:47:31;;;;;;;26.85;16.92;;;6.50;99.90;;;;;;5107586;28;20044;-73
2022/09/23 04:49:57;;;;;;;56.60;41.22;;;6.50;99.90;;;;;;5107459;28;20063;-73
2022/09/23 04:52:22;;;;;;;27.63;15.93;;;6.50;99.90;;;;;;5106470;28;20052;-73
2022/09/23 04:54:48;;;;;;;48.83;40.30;;;6.50;99.90;;;;;;5091860;28;20044;-73
2022/09/23 04:57:14;;;;;;;28.55;17.33;;;6.40;99.90;;;;;;5101494;28;20048;-73
2022/09/23 04:59:40;;;;;;;44.05;38.95;;;6.40;99.90;;;;;;5108154;28;20040;-73
2022/09/23 05:02:05;;;;;;;30.55;16.08;;;6.40;99.90;;;;;;5107060;28;20087;-73
2022/09/23 05:04:31;;;;;;;24.55;14.35;;;6.40;99.90;;;;;;5106936;28;20177;-73
2022/09/23 05:06:57;;;;;;;46.55;38.95;;;6.40;99.90;;;;;;5107286;28;20071;-73
2022/09/23 05:09:22;;;;;;;21.50;13.77;;;6.40;99.90;;;;;;5105218;28;21560;-73
2022/09/23 05:11:48;;;;;;;24.60;13.02;;;6.40;99.90;;;;;;5087856;28;20067;-72
2022/09/23 05:14:13;;;;;;;52.67;41.42;;;6.40;99.90;;;;;;5097543;28;20055;-73
2022/09/23 05:16:39;;;;;;;25.02;12.50;;;6.40;99.90;;;;;;5106929;28;20078;-74
2022/09/23 05:19:06;;;;;;;25.05;12.60;;;6.50;99.90;;;;;;5106226;28;20055;-73
2022/09/23 05:21:32;;;;;;;22.88;11.88;;;6.50;99.90;;;;;;5105966;28;20414;-72
2022/09/23 05:23:59;;;;;;;23.95;13.10;;;6.50;99.90;;;;;;5098415;28;20044;-72
2022/09/23 05:26:29;;;;;;;23.90;13.05;;;6.40;99.90;;;;;;5102780;28;20061;-72
2022/09/23 05:28:55;;;;;;;56.88;44.47;;;6.40;99.90;;;;;;5106712;28;20043;-73
2022/09/23 05:31:24;;;;;;;28.60;13.65;;;6.50;99.90;;;;;;5106698;28;20044;-73
2022/09/23 05:33:56;;;;;;;26.85;14.95;;;6.50;99.90;;;;;;5106662;28;20512;-72
2022/09/23 05:36:23;;;;;;;25.67;13.80;;;6.60;99.90;;;;;;5108085;28;20104;-72
2022/09/23 05:38:50;;;;;;;50.28;41.72;;;6.50;99.90;;;;;;5088729;28;20159;-73
2022/09/23 05:41:17;;;;;;;22.77;13.93;;;6.50;99.90;;;;;;5103308;28;20543;-72
2022/09/23 05:43:43;;;;;;;30.02;16.23;;;6.50;99.90;;;;;;5107538;28;20097;-72
2022/09/23 05:46:11;;;;;;;26.52;17.40;;;6.50;99.90;;;;;;5102994;28;20044;-72
2022/09/23 05:48:38;;;;;;;53.22;43.20;;;6.50;99.90;;;;;;5095148;28;20043;-72
2022/09/23 05:51:09;;;;;;;29.13;14.70;;;6.50;99.90;;;;;;5096445;28;20096;-72
2022/09/23 05:53:35;;;;;;;33.47;15.88;;;6.60;99.90;;;;;;5104969;28;20044;-72
2022/09/23 05:56:02;;;;;;;29.92;15.02;;;6.50;99.90;;;;;;5090975;28;20101;-73
2022/09/23 05:58:28;;;;;;;20.23;13.57;;;6.60;99.90;;;;;;5069184;28;20040;-72
2022/09/23 06:00:56;;;;;;;49.63;39.28;;;6.70;99.90;;;;;;5100320;28;20052;-72
2022/09/23 06:03:23;;;;;;;25.92;15.98;;;6.70;99.90;;;;;;5087746;28;20167;-72
2022/09/23 06:05:53;;;;;;;40.88;15.77;;;6.80;99.90;;;;;;5100539;28;20058;-73
2022/09/23 06:08:18;;;;;;;42.28;37.22;;;6.80;99.90;;;;;;5094331;28;20496;-72
2022/09/23 06:10:45;;;;;;;49.22;39.45;;;6.90;99.90;;;;;;5100453;28;20047;-72
2022/09/23 06:13:11;;;;;;;30.75;15.32;;;7.00;99.90;;;;;;5105338;28;20593;-72
2022/09/23 06:15:38;;;;;;;48.95;39.00;;;7.10;99.90;;;;;;5111311;28;20039;-72
2022/09/23 06:18:04;;;;;;;28.65;14.15;;;7.10;99.90;;;;;;5105379;28;20500;-72
2022/09/23 06:20:30;;;;;;;48.28;39.03;;;7.20;99.90;;;;;;5108838;28;20047;-72
2022/09/23 06:23:05;;;;;;;22.85;13.85;;;7.30;99.90;;;;;;5100134;28;20052;-72
2022/09/23 06:25:35;;;;;;;25.50;14.23;;;7.40;99.90;;;;;;5109246;28;20484;-71
2022/09/23 06:28:01;;;;;;;55.40;42.47;;;7.40;99.90;;;;;;5096094;28;20084;-71
2022/09/23 06:30:27;;;;;;;47.53;40.40;;;7.50;99.90;;;;;;5088542;28;20485;-69
2022/09/23 06:32:56;;;;;;;24.75;16.23;;;7.60;99.90;;;;;;5090097;28;20035;-70
2022/09/23 06:35:24;;;;;;;23.15;12.85;;;7.70;99.90;;;;;;5095613;28;20052;-69
2022/09/23 06:37:49;;;;;;;24.58;14.95;;;7.80;99.90;;;;;;5108477;28;20046;-69
2022/09/23 06:40:15;;;;;;;27.65;15.60;;;7.90;99.90;;;;;;5109884;28;20044;-69
2022/09/23 06:42:43;;;;;;;55.58;46.20;;;8.00;99.90;;;;;;5104731;28;20552;-69
2022/09/23 06:45:12;;;;;;;26.10;18.27;;;8.10;99.90;;;;;;5105793;28;20062;-69
2022/09/23 06:47:39;;;;;;;28.77;15.15;;;8.30;99.90;;;;;;5104299;28;20093;-69
2022/09/23 06:50:05;;;;;;;32.88;16.40;;;8.40;99.90;;;;;;5107839;28;20036;-69
2022/09/23 06:52:31;;;;;;;28.48;17.05;;;8.50;99.90;;;;;;5109408;28;20802;-69
2022/09/23 06:54:57;;;;;;;54.70;43.03;;;8.60;99.90;;;;;;5100099;28;20104;-69
2022/09/23 06:57:23;;;;;;;28.83;17.88;;;8.70;99.90;;;;;;5103066;28;20135;-69
2022/09/23 06:59:49;;;;;;;55.13;46.10;;;8.90;99.90;;;;;;5105574;28;20374;-69
2022/09/23 07:02:15;;;;;;;55.63;45.60;;;9.00;99.90;;;;;;5096063;28;20054;-69
2022/09/23 07:04:40;;;;;;;29.77;15.88;;;9.20;99.90;;;;;;5109528;28;20035;-69
2022/09/23 07:07:07;;;;;;;56.28;44.03;;;9.20;99.90;;;;;;5096123;28;20126;-69
2022/09/23 07:09:32;;;;;;;27.30;16.63;;;9.30;99.90;;;;;;5106486;28;20078;-69
2022/09/23 07:11:58;;;;;;;39.40;16.77;;;9.40;99.90;;;;;;5097309;28;20079;-69
2022/09/23 07:14:23;;;;;;;53.15;41.72;;;9.50;99.90;;;;;;5104951;28;20557;-69
2022/09/23 07:16:50;;;;;;;29.20;18.02;;;9.60;99.90;;;;;;5107741;28;20039;-69
2022/09/23 07:19:16;;;;;;;34.40;17.25;;;9.70;99.90;;;;;;5103627;28;20722;-70
2022/09/23 07:21:41;;;;;;;26.73;15.95;;;9.70;99.90;;;;;;5102829;27;20086;-69
2022/09/23 07:24:07;;;;;;;25.08;14.27;;;9.80;99.90;;;;;;5089656;28;20781;-70
2022/09/23 07:26:33;;;;;;;27.25;16.00;;;9.90;99.90;;;;;;5105417;28;20043;-69
2022/09/23 07:29:03;;;;;;;60.58;43.97;;;10.00;99.90;;;;;;5094637;28;20461;-69
2022/09/23 07:31:30;;;;;;;44.67;38.95;;;10.10;99.90;;;;;;5096989;28;20717;-69
2022/09/23 07:33:57;;;;;;;25.45;16.45;;;10.20;99.90;;;;;;5103229;28;20058;-69
2022/09/23 07:36:23;;;;;;;19.52;12.15;;;10.40;99.90;;;;;;5093146;28;20507;-69
2022/09/23 07:38:49;;;;;;;24.40;13.57;;;10.50;99.90;;;;;;5084878;28;20047;-70
2022/09/23 07:41:18;;;;;;;23.73;13.48;;;10.60;99.90;;;;;;5095297;28;20054;-70
2022/09/23 07:43:44;;;;;;;;;;;10.60;99.90;;;;;;5103365;28;20040;-69
2022/09/23 07:46:15;;;;;;;42.03;34.30;;;10.80;99.90;;;;;;5100828;28;19919;-70
2022/09/23 07:48:42;;;;;;;28.83;16.17;;;10.90;99.90;;;;;;5108843;28;20059;-70
2022/09/23 07:51:11;;;;;;;24.02;13.45;;;11.00;99.90;;;;;;5106124;28;20044;-70
2022/09/23 07:53:37;;;;;;;38.70;30.80;;;11.20;99.90;;;;;;5101146;28;20047;-70
2022/09/23 07:56:05;;;;;;;37.95;32.33;;;11.20;99.90;;;;;;5100984;28;20039;-70
2022/09/23 07:58:31;;;;;;;36.43;32.13;;;11.30;99.90;;;;;;5099606;28;20086;-69
2022/09/23 08:01:05;;;;;;;46.10;33.38;;;11.30;99.90;;;;;;5101587;28;20281;-70
2022/09/23 08:03:31;;;;;;;35.00;30.33;;;11.50;99.90;;;;;;5107521;28;20058;-70
2022/09/23 08:06:08;;;;;;;41.42;30.52;;;11.60;99.90;;;;;;5105654;28;20672;-70
2022/09/23 08:08:38;;;;;;;40.63;31.10;;;11.70;99.90;;;;;;5102164;28;20161;-70
2022/09/23 08:11:06;;;;;;;43.47;30.90;;;11.80;99.90;;;;;;5101625;28;20082;-70
2022/09/23 08:13:32;;;;;;;38.65;32.13;;;11.80;99.90;;;;;;5100822;28;20165;-70
2022/09/23 08:15:57;;;;;;;44.03;32.25;;;11.90;99.90;;;;;;5080383;28;20055;-70
2022/09/23 08:18:24;;;;;;;39.47;31.98;;;12.00;99.90;;;;;;5092016;28;20058;-70
2022/09/23 08:20:50;;;;;;;40.65;30.42;;;12.10;99.90;;;;;;5093166;27;20048;-70
2022/09/23 08:23:17;;;;;;;34.65;30.10;;;12.10;99.90;;;;;;5092457;28;20054;-70
2022/09/23 08:25:46;;;;;;;42.45;29.60;;;12.20;99.90;;;;;;5102230;28;20103;-70
2022/09/23 08:28:17;;;;;;;39.35;30.55;;;12.30;99.90;;;;;;5100437;28;20175;-70
2022/09/23 08:30:46;;;;;;;42.05;30.13;;;12.30;99.90;;;;;;5090620;28;20054;-70
2022/09/23 08:33:12;;;;;;;39.63;31.95;;;12.40;99.90;;;;;;5101374;28;20054;-70
2022/09/23 08:35:38;;;;;;;39.85;30.98;;;12.50;99.90;;;;;;5096424;27;20439;-70
2022/09/23 08:38:05;;;;;;;35.40;31.63;;;12.50;99.90;;;;;;5105109;28;20062;-71
2022/09/23 08:40:38;;;;;;;42.40;29.33;;;12.60;99.90;;;;;;5102401;27;20504;-71
2022/09/23 08:43:14;;;;;;;36.80;29.92;;;12.70;99.90;;;;;;5107078;27;20396;-71
2022/09/23 08:45:41;;;;;;;44.38;30.77;;;12.80;99.90;;;;;;5093979;28;20150;-71
2022/09/23 08:48:14;;;;;;;45.58;30.05;;;12.90;99.90;;;;;;5097704;28;20040;-71
2022/09/23 08:50:45;;;;;;;37.90;28.20;;;12.90;99.90;;;;;;5096606;28;20736;-71
2022/09/23 08:53:23;;;;;;;33.42;28.50;;;13.00;99.90;;;;;;5098826;28;20412;-71
2022/09/23 08:55:51;;;;;;;38.35;27.65;;;13.10;99.90;;;;;;5098180;28;20055;-71
2022/09/23 08:58:25;;;;;;;36.53;28.25;;;13.10;99.90;;;;;;5098650;28;20048;-71
2022/09/23 09:01:15;;;;;;;32.40;25.20;;;13.30;99.90;;;;;;5098693;28;20243;-71
2022/09/23 09:03:49;;;;;;;36.05;27.30;;;13.40;99.90;;;;;;5102393;28;20061;-71
2022/09/23 09:06:21;;;;;;;30.30;24.60;;;13.40;99.90;;;;;;5100495;28;20061;-71
2022/09/23 09:08:57;;;;;;;38.30;26.67;;;13.50;99.90;;;;;;5092344;28;20060;-71
2022/09/23 09:11:30;;;;;;;36.03;27.30;;;13.60;99.90;;;;;;5096997;28;20131;-71
2022/09/23 09:14:16;;;;;;;29.17;23.20;;;13.70;99.90;;;;;;5102774;28;20445;-71
2022/09/23 09:16:53;;;;;;;34.65;26.10;;;13.80;99.90;;;;;;5106639;28;20465;-71
2022/09/23 09:19:24;;;;;;;31.65;24.73;;;13.90;99.90;;;;;;5099169;28;20147;-71
2022/09/23 09:21:52;;;;;;;31.65;26.63;;;14.10;99.90;;;;;;5104357;28;20411;-71
2022/09/23 09:24:30;;;;;;;32.78;23.77;;;14.20;99.90;;;;;;5102587;28;20058;-71
2022/09/23 09:26:59;;;;;;;30.25;25.92;;;14.20;99.90;;;;;;5097366;28;20052;-71
2022/09/23 09:29:38;;;;;;;35.00;25.50;;;14.20;99.90;;;;;;5103512;28;20460;-71
2022/09/23 09:32:46;;;;;;;32.05;25.27;;;14.30;99.90;;;;;;5095007;28;20043;-71
2022/09/23 09:35:33;;;;;;;31.75;24.90;;;14.40;99.90;;;;;;5085587;28;20055;-71
2022/09/23 09:38:00;;;;;;;35.28;25.15;;;14.50;99.90;;;;;;5096911;28;20505;-71
2022/09/23 09:40:26;;;;;;;34.03;25.88;;;14.50;99.90;;;;;;5096935;28;20064;-71
2022/09/23 09:42:51;;;;;;;32.13;23.15;;;14.60;99.90;;;;;;5102645;28;20206;-71
2022/09/23 09:45:28;;;;;;;30.20;24.27;;;14.70;99.90;;;;;;5101391;28;20056;-71
2022/09/23 09:48:02;;;;;;;31.15;23.55;;;14.90;99.90;;;;;;5104422;28;20044;-72
2022/09/23 09:50:44;;;;;;;30.00;23.40;;;15.00;99.90;;;;;;5108234;28;20067;-72
2022/09/23 09:53:34;;;;;;;28.55;22.75;;;15.10;99.90;;;;;;5102978;28;20047;-72
2022/09/23 09:56:08;;;;;;;24.98;22.30;;;15.20;99.90;;;;;;5107529;28;20054;-72
2022/09/23 09:58:45;;;;;;;25.80;22.75;;;15.30;99.90;;;;;;5103740;28;20073;-72
2022/09/23 10:01:37;;;;;;;25.75;21.20;;;15.40;99.90;;;;;;5106129;28;20450;-72
2022/09/23 10:04:05;;;;;;;28.73;22.70;;;15.50;99.90;;;;;;5099349;28;20094;-72
2022/09/23 10:06:34;;;;;;;;;;;15.60;99.90;;;;;;5083977;28;20055;-72
2022/09/23 10:09:03;;;;;;;24.63;20.98;;;15.80;99.90;;;;;;5100409;28;19920;-72
2022/09/23 10:11:29;;;;;;;24.23;21.27;;;15.90;99.90;;;;;;5104201;28;20055;-72
2022/09/23 10:14:16;;;;;;;22.80;20.52;;;16.00;99.90;;;;;;5110314;28;20110;-72
2022/09/23 10:16:43;;;;;;;34.00;20.55;;;16.10;99.90;;;;;;5098545;28;20051;-72
2022/09/23 10:19:28;;;;;;;27.13;19.27;;;16.20;99.90;;;;;;5090205;28;20079;-72
2022/09/23 10:21:58;;;;;;;21.58;19.13;;;16.40;99.90;;;;;;5091071;28;20241;-72
2022/09/23 10:24:28;;;;;;;26.92;19.90;;;16.50;99.90;;;;;;5091580;28;20055;-72
2022/09/23 10:27:03;;;;;;;26.73;17.17;;;16.60;99.90;;;;;;5097785;28;20040;-72
2022/09/23 10:29:49;;;;;;;23.83;19.60;;;16.70;99.90;;;;;;5088665;28;20055;-72
2022/09/23 10:32:26;;;;;;;21.35;18.30;;;16.60;99.90;;;;;;5103110;28;20127;-72
2022/09/23 10:35:13;;;;;;;30.08;20.88;;;16.70;99.90;;;;;;5107830;28;20083;-71
2022/09/23 10:37:49;;;;;;;30.45;21.50;;;16.60;99.90;;;;;;5103169;28;20046;-71
2022/09/23 10:49:23;;;;;;;24.88;18.70;;;16.70;99.90;;;;;;5102214;28;20051;-71
2022/09/23 10:52:04;;;;;;;31.13;20.90;;;16.80;99.90;;;;;;5109012;28;20047;-71
2022/09/23 10:54:48;;;;;;;38.33;20.13;;;16.80;99.90;;;;;;5094489;28;20052;-71
2022/09/23 10:57:39;;;;;;;20.60;17.75;;;16.80;99.90;;;;;;5101712;28;20058;-71
2022/09/23 11:00:22;;;;;;;23.00;17.58;;;16.90;99.90;;;;;;5105958;28;20114;-71
2022/09/23 11:02:57;;;;;;;24.10;17.95;;;16.90;99.90;;;;;;5101621;28;20100;-71
2022/09/23 11:05:55;;;;;;;23.60;18.30;;;16.90;99.90;;;;;;5105291;28;20475;-71
2022/09/23 11:08:52;;;;;;;28.58;20.10;;;16.90;99.90;;;;;;5103288;28;20047;-71
2022/09/23 11:11:45;;;;;;;33.27;19.43;;;16.90;99.90;;;;;;5101796;28;20044;-71
2022/09/23 11:14:29;;;;;;;20.92;17.55;;;17.00;99.90;;;;;;5108439;28;20047;-71
2022/09/23 11:17:00;;;;;;;24.50;19.00;;;16.90;99.90;;;;;;5097322;28;20119;-71
2022/09/23 11:19:35;;;;;;;25.65;19.70;;;16.90;99.90;;;;;;5098595;28;20283;-72
2022/09/23 11:22:03;;;;;;;25.45;20.67;;;16.90;99.90;;;;;;5099377;28;20048;-71
2022/09/23 11:24:49;;;;;;;23.10;18.13;;;16.90;99.90;;;;;;5103314;28;20667;-71
2022/09/23 11:27:42;;;;;;;26.33;19.50;;;16.80;99.90;;;;;;5096516;28;20050;-71
2022/09/23 11:30:18;;;;;;;31.13;20.15;;;16.90;99.90;;;;;;5098270;28;20130;-71
2022/09/23 11:33:03;;;;;;;37.20;22.35;;;16.80;99.90;;;;;;5087364;28;20047;-71
2022/09/23 11:35:41;;;;;;;24.08;20.30;;;16.90;99.90;;;;;;5093327;27;20130;-71
2022/09/23 11:38:11;;;;;;;26.55;19.33;;;16.90;99.90;;;;;;5093546;28;20878;-71
2022/09/23 11:40:39;;;;;;;21.20;18.15;;;16.90;99.90;;;;;;5093211;28;20047;-71
2022/09/23 11:43:17;;;;;;;28.08;19.40;;;16.90;99.90;;;;;;5100055;28;20040;-71
2022/09/23 11:45:52;;;;;;;24.15;21.42;;;16.90;99.90;;;;;;5094296;28;20047;-71
2022/09/23 11:48:26;;;;;;;25.58;19.30;;;16.90;99.90;;;;;;5104934;28;20055;-71
2022/09/23 11:51:01;;;;;;;28.05;21.88;;;16.80;99.90;;;;;;5106014;28;20145;-70
2022/09/23 11:53:47;;;;;;;28.13;21.35;;;16.70;99.90;;;;;;5098394;28;20087;-71
2022/09/23 11:56:34;;;;;;;43.63;22.65;;;16.70;99.90;;;;;;5105787;28;20054;-71
2022/09/23 11:59:08;;;;;;;31.00;20.95;;;16.70;99.90;;;;;;5087637;28;20059;-71
2022/09/23 12:01:57;;;;;;;30.25;22.15;;;16.60;99.90;;;;;;5105241;28;20048;-71
2022/09/23 12:04:42;;;;;;;28.50;20.38;;;16.60;99.90;;;;;;5104462;28;20044;-70
2022/09/23 12:07:07;;;;;;;32.42;21.20;;;16.50;99.90;;;;;;5106673;28;20040;-71
2022/09/23 12:09:51;;;;;;;29.65;23.52;;;16.40;99.90;;;;;;5103602;28;20044;-71
2022/09/23 12:12:39;;;;;;;35.10;23.45;;;16.50;99.90;;;;;;5109173;28;20099;-71
2022/09/23 12:15:23;;;;;;;33.15;23.15;;;16.40;99.90;;;;;;5106268;28;20050;-70
2022/09/23 12:18:12;;;;;;;30.35;22.88;;;16.40;99.90;;;;;;5108812;28;20116;-71
2022/09/23 12:20:59;;;;;;;25.67;20.98;;;16.40;99.90;;;;;;5108182;28;20058;-71
2022/09/23 12:23:35;;;;;;;30.15;21.17;;;16.40;99.90;;;;;;5100024;28;20052;-71
2022/09/23 12:26:04;;;;;;;30.48;23.73;;;16.40;99.90;;;;;;5108067;28;20055;-71
2022/09/23 12:28:49;;;;;;;27.80;24.60;;;16.30;99.90;;;;;;5106080;28;20897;-71
2022/09/23 12:31:29;;;;;;;33.85;22.73;;;16.30;99.90;;;;;;5098473;28;20070;-71
2022/09/23 12:34:00;;;;;;;28.55;23.45;;;16.30;99.90;;;;;;5106445;28;20039;-70
2022/09/23 12:36:34;;;;;;;29.13;23.33;;;16.30;99.90;;;;;;5106598;28;20126;-70
2022/09/23 12:39:28;;;;;;;28.15;22.77;;;16.40;99.90;;;;;;5106691;28;20381;-70
2022/09/23 12:42:04;;;;;;;27.35;22.10;;;16.40;99.90;;;;;;5103798;28;20047;-70
2022/09/23 12:44:42;;;;;;;26.05;22.73;;;16.30;99.90;;;;;;5107615;28;20218;-70
2022/09/23 12:47:23;;;;;;;;;;;16.30;99.90;;;;;;5108314;28;20036;-71
2022/09/23 12:49:51;;;;;;;31.67;24.02;;;16.30;99.90;;;;;;5104000;28;19920;-70
2022/09/23 12:52:16;;;;;;;29.23;21.05;;;16.30;99.90;;;;;;5108053;28;20065;-71
2022/09/23 12:54:44;;;;;;;33.58;23.08;;;16.40;99.90;;;;;;5107358;28;20504;-71
2022/09/23 12:57:11;;;;;;;35.67;26.10;;;16.40;99.90;;;;;;5109463;28;20119;-71
2022/09/23 12:59:58;;;;;;;29.70;24.00;;;16.40;99.90;;;;;;5109272;28;20449;-71
2022/09/23 13:02:36;;;;;;;34.47;25.27;;;16.30;99.90;;;;;;5102972;28;20309;-71
2022/09/23 13:07:48;;;;;;;30.30;22.30;;;16.30;99.90;;;;;;5107580;28;19938;-71
2022/09/23 13:10:38;;;;;;;31.10;22.27;;;16.30;99.90;;;;;;5108981;28;20038;-70
2022/09/23 13:13:06;;;;;;;30.02;25.00;;;16.40;99.90;;;;;;5103996;28;20052;-71
2022/09/23 13:15:34;;;;;;;33.45;25.70;;;16.40;99.90;;;;;;5108785;28;20047;-70